createdAt,value
2022-07-30T00:01:45.422Z,101897.28
2022-07-30T00:04:12.263Z,101906.84
2022-07-30T00:06:40.092Z,101907.09
2022-07-30T00:09:07.048Z,101903.88
2022-07-30T00:11:33.868Z,101904.88
2022-07-30T00:14:00.821Z,101902.34
2022-07-30T00:16:28.051Z,101906.53
2022-07-30T00:18:54.932Z,101902.50
2022-07-30T00:21:35.614Z,101899.03
2022-07-30T00:24:03.622Z,101899.72
2022-07-30T00:26:30.566Z,101890.69
2022-07-30T00:28:57.403Z,101888.88
2022-07-30T00:31:24.225Z,101898.19
2022-07-30T00:33:51.078Z,101897.47
2022-07-30T00:36:18.002Z,101897.34
2022-07-30T00:38:44.802Z,101882.69
2022-07-30T00:41:11.911Z,101886.00
2022-07-30T00:43:39.495Z,101899.34
2022-07-30T00:46:06.453Z,101894.09
2022-07-30T00:48:33.326Z,101887.72
2022-07-30T00:51:00.323Z,101894.38
2022-07-30T00:53:27.190Z,101888.44
2022-07-30T00:55:54.178Z,101877.75
2022-07-30T00:58:21.032Z,101880.81
2022-07-30T01:00:47.878Z,101881.38
2022-07-30T01:03:14.795Z,101869.97
2022-07-30T01:05:41.731Z,101877.75
2022-07-30T01:08:08.569Z,101873.44
2022-07-30T01:10:35.765Z,101875.28
2022-07-30T01:13:03.828Z,101863.69
2022-07-30T01:15:30.743Z,101859.25
2022-07-30T01:18:00.227Z,101858.81
2022-07-30T01:21:04.984Z,101854.50
2022-07-30T01:23:39.838Z,101857.72
2022-07-30T01:26:11.771Z,101856.06
2022-07-30T01:28:45.824Z,101852.97
2022-07-30T01:31:13.298Z,101842.47
2022-07-30T01:33:42.221Z,101843.69
2022-07-30T01:36:10.821Z,101841.31
2022-07-30T01:38:37.729Z,101838.69
2022-07-30T01:41:04.634Z,101828.38
2022-07-30T01:43:31.530Z,101828.00
2022-07-30T01:45:58.454Z,101829.91
2022-07-30T01:48:25.441Z,101827.59
2022-07-30T01:50:55.000Z,101825.56
2022-07-30T01:53:24.423Z,101818.31
2022-07-30T01:55:51.343Z,101813.63
2022-07-30T01:58:19.717Z,101824.72
2022-07-30T02:00:46.735Z,101809.44
2022-07-30T02:03:13.756Z,101820.94
2022-07-30T02:05:41.842Z,101821.31
2022-07-30T02:08:17.353Z,101823.47
2022-07-30T02:10:50.921Z,101820.16
2022-07-30T02:13:22.086Z,101819.44
2022-07-30T02:15:48.933Z,101812.66
2022-07-30T02:18:23.830Z,101814.44
2022-07-30T02:21:07.244Z,101798.94
2022-07-30T02:23:40.184Z,101793.09
2022-07-30T02:26:08.842Z,101795.03
2022-07-30T02:28:38.725Z,101786.19
2022-07-30T02:31:16.926Z,101777.47
2022-07-30T02:33:49.137Z,101775.69
2022-07-30T02:36:16.184Z,101777.09
2022-07-30T02:38:43.003Z,101770.44
2022-07-30T02:41:10.425Z,101773.19
2022-07-30T02:43:37.946Z,101773.84
2022-07-30T02:46:05.023Z,101785.41
2022-07-30T02:48:35.389Z,101787.56
2022-07-30T02:51:02.484Z,101786.72
2022-07-30T02:53:29.378Z,101777.69
2022-07-30T02:55:56.191Z,101778.66
2022-07-30T02:58:24.343Z,101793.34
2022-07-30T03:00:52.661Z,101783.78
2022-07-30T03:03:19.720Z,101782.34
2022-07-30T03:05:46.562Z,101784.50
2022-07-30T03:08:13.491Z,101784.81
2022-07-30T03:10:46.374Z,101777.91
2022-07-30T03:13:13.263Z,101780.53
2022-07-30T03:15:44.301Z,101786.09
2022-07-30T03:18:12.594Z,101773.69
2022-07-30T03:20:39.489Z,101785.22
2022-07-30T03:23:06.351Z,101792.81
2022-07-30T03:25:33.224Z,101789.75
2022-07-30T03:28:00.944Z,101791.53
2022-07-30T03:30:27.790Z,101781.00
2022-07-30T03:32:55.070Z,101785.69
2022-07-30T03:35:22.581Z,101793.81
2022-07-30T03:37:49.427Z,101791.53
2022-07-30T03:40:16.407Z,101797.66
2022-07-30T03:42:43.353Z,101794.50
2022-07-30T03:45:10.810Z,101791.81
2022-07-30T03:47:38.943Z,101808.16
2022-07-30T03:50:06.484Z,101803.63
2022-07-30T03:52:35.176Z,101809.03
2022-07-30T03:55:03.376Z,101800.69
2022-07-30T03:57:30.364Z,101805.41
2022-07-30T03:59:57.293Z,101809.59
2022-07-30T04:02:24.202Z,101799.50
2022-07-30T04:04:51.161Z,101803.16
2022-07-30T04:07:18.163Z,101787.81
2022-07-30T04:09:45.038Z,101804.09
2022-07-30T04:12:13.851Z,101796.97
2022-07-30T04:14:44.785Z,101796.59
2022-07-30T04:17:25.102Z,101794.75
2022-07-30T04:19:53.723Z,101790.03
2022-07-30T04:22:27.388Z,101783.97
2022-07-30T04:24:54.344Z,101789.97
2022-07-30T04:27:21.543Z,101771.88
2022-07-30T04:29:48.542Z,101772.13
2022-07-30T04:32:15.458Z,101771.91
2022-07-30T04:35:00.433Z,101776.03
2022-07-30T04:37:27.518Z,101769.00
2022-07-30T04:39:55.006Z,101764.72
2022-07-30T04:42:22.362Z,101771.00
2022-07-30T04:44:50.085Z,101762.75
2022-07-30T04:47:18.068Z,101771.38
2022-07-30T04:49:45.524Z,101753.50
2022-07-30T04:52:12.728Z,101760.16
2022-07-30T04:54:43.015Z,101752.44
2022-07-30T04:57:10.854Z,101761.16
2022-07-30T04:59:37.828Z,101761.97
2022-07-30T05:02:04.948Z,101766.75
2022-07-30T05:04:32.524Z,101758.09
2022-07-30T05:06:59.778Z,101765.56
2022-07-30T05:09:27.282Z,101764.47
2022-07-30T05:11:54.263Z,101764.25
2022-07-30T05:14:21.702Z,101762.47
2022-07-30T05:16:48.928Z,101761.31
2022-07-30T05:19:15.825Z,101761.91
2022-07-30T05:21:42.643Z,101753.34
2022-07-30T05:26:36.838Z,101755.13
2022-07-30T05:29:07.069Z,101747.38
2022-07-30T05:31:34.420Z,101752.75
2022-07-30T05:34:03.504Z,101755.22
2022-07-30T05:36:31.097Z,101745.13
2022-07-30T05:38:58.057Z,101740.19
2022-07-30T05:41:31.870Z,101749.03
2022-07-30T05:44:00.623Z,101755.78
2022-07-30T05:46:27.682Z,101746.69
2022-07-30T05:48:54.710Z,101743.16
2022-07-30T05:51:22.282Z,101734.19
2022-07-30T05:53:49.374Z,101748.00
2022-07-30T05:56:16.289Z,101741.59
2022-07-30T05:58:43.223Z,101745.09
2022-07-30T06:01:10.189Z,101739.97
2022-07-30T06:03:39.211Z,101732.09
2022-07-30T06:06:06.359Z,101749.25
2022-07-30T06:08:33.321Z,101739.94
2022-07-30T06:11:00.245Z,101735.22
2022-07-30T06:13:27.106Z,101740.09
2022-07-30T06:15:54.074Z,101726.44
2022-07-30T06:18:23.305Z,101741.84
2022-07-30T06:20:52.220Z,101732.56
2022-07-30T06:23:19.567Z,101729.28
2022-07-30T06:25:48.146Z,101729.63
2022-07-30T06:28:36.631Z,101729.97
2022-07-30T06:31:02.729Z,101722.25
2022-07-30T06:33:29.822Z,101726.50
2022-07-30T06:35:56.667Z,101726.03
2022-07-30T06:38:23.601Z,101725.25
2022-07-30T06:40:50.444Z,101724.38
2022-07-30T06:43:19.140Z,101716.69
2022-07-30T06:45:46.024Z,101713.13
2022-07-30T06:48:12.946Z,101717.94
2022-07-30T06:50:41.733Z,101723.38
2022-07-30T06:53:08.588Z,101719.38
2022-07-30T06:55:35.582Z,101721.44
2022-07-30T06:58:02.576Z,101720.41
2022-07-30T07:00:29.503Z,101722.16
2022-07-30T07:02:56.345Z,101727.53
2022-07-30T07:05:23.877Z,101723.50
2022-07-30T07:07:58.612Z,101719.16
2022-07-30T07:10:26.706Z,101723.50
2022-07-30T07:12:53.801Z,101719.59
2022-07-30T07:15:22.270Z,101722.00
2022-07-30T07:17:59.135Z,101721.09
2022-07-30T07:20:29.294Z,101715.75
2022-07-30T07:22:56.182Z,101705.44
2022-07-30T07:25:24.843Z,101712.56
2022-07-30T07:28:10.936Z,101703.81
2022-07-30T07:30:38.912Z,101704.16
2022-07-30T07:33:05.785Z,101707.28
2022-07-30T07:35:48.888Z,101706.69
2022-07-30T07:38:18.148Z,101704.38
2022-07-30T07:40:45.745Z,101703.66
2022-07-30T07:43:12.607Z,101713.16
2022-07-30T07:45:39.685Z,101699.00
2022-07-30T07:48:07.044Z,101702.09
2022-07-30T07:50:34.456Z,101692.72
2022-07-30T07:53:01.352Z,101695.97
2022-07-30T07:55:28.359Z,101689.94
2022-07-30T07:57:58.572Z,101688.97
2022-07-30T08:00:25.674Z,101681.59
2022-07-30T08:02:52.893Z,101674.25
2022-07-30T08:05:19.946Z,101673.72
2022-07-30T08:07:46.953Z,101665.53
2022-07-30T08:10:14.225Z,101676.28
2022-07-30T08:12:41.082Z,101667.72
2022-07-30T08:15:09.538Z,101671.59
2022-07-30T08:17:45.869Z,101672.34
2022-07-30T08:20:13.883Z,101675.69
2022-07-30T08:22:41.379Z,101663.75
2022-07-30T08:25:08.686Z,101675.66
2022-07-30T08:27:35.882Z,101660.88
2022-07-30T08:30:05.928Z,101665.00
2022-07-30T08:32:33.004Z,101663.47
2022-07-30T08:34:59.946Z,101664.75
2022-07-30T08:37:26.780Z,101660.34
2022-07-30T08:39:53.733Z,101661.75
2022-07-30T08:42:20.587Z,101635.19
2022-07-30T08:44:47.581Z,101666.94
2022-07-30T08:47:18.690Z,101662.91
2022-07-30T08:49:48.629Z,101667.56
2022-07-30T08:52:15.484Z,101660.72
2022-07-30T08:54:42.345Z,101661.22
2022-07-30T08:57:09.520Z,101660.88
2022-07-30T09:00:00.198Z,101657.59
2022-07-30T09:02:27.795Z,101649.13
2022-07-30T09:04:56.658Z,101658.22
2022-07-30T09:07:23.611Z,101644.47
2022-07-30T09:09:50.526Z,101657.91
2022-07-30T09:12:42.959Z,101657.72
2022-07-30T09:15:15.844Z,101650.50
2022-07-30T09:18:00.664Z,101649.41
2022-07-30T09:20:34.803Z,101650.78
2022-07-30T09:23:05.905Z,101651.34
2022-07-30T09:25:42.121Z,101651.22
2022-07-30T09:28:16.245Z,101654.13
2022-07-30T09:30:46.949Z,101654.16
2022-07-30T09:33:13.930Z,101651.13
2022-07-30T09:35:41.613Z,101650.78
2022-07-30T09:38:08.807Z,101643.78
2022-07-30T09:40:35.723Z,101649.56
2022-07-30T09:43:07.414Z,101651.38
2022-07-30T09:45:35.180Z,101642.53
2022-07-30T09:48:02.478Z,101647.69
2022-07-30T09:50:30.916Z,101635.19
2022-07-30T09:53:09.662Z,101639.50
2022-07-30T09:55:42.047Z,101631.66
2022-07-30T09:58:09.879Z,101635.91
2022-07-30T10:00:42.226Z,101643.69
2022-07-30T10:03:33.318Z,101627.09
2022-07-30T10:06:03.100Z,101634.53
2022-07-30T10:08:52.565Z,101631.69
2022-07-30T10:11:23.794Z,101637.81
2022-07-30T10:13:57.824Z,101634.53
2022-07-30T10:16:27.746Z,101637.63
2022-07-30T10:18:57.758Z,101630.56
2022-07-30T10:21:25.644Z,101632.56
2022-07-30T10:23:53.275Z,101633.78
2022-07-30T10:26:20.225Z,101633.38
2022-07-30T10:28:48.381Z,101639.56
2022-07-30T10:31:48.988Z,101634.97
2022-07-30T10:34:02.638Z,101639.41
2022-07-30T10:36:29.565Z,101654.22
2022-07-30T10:38:56.469Z,101636.84
2022-07-30T10:41:44.448Z,101643.22
2022-07-30T10:44:26.542Z,101627.75
2022-07-30T10:47:07.294Z,101634.50
2022-07-30T10:49:40.943Z,101629.41
2022-07-30T10:52:08.978Z,101636.16
2022-07-30T10:54:40.721Z,101633.28
2022-07-30T10:57:22.614Z,101634.59
2022-07-30T10:59:59.988Z,101630.81
2022-07-30T11:02:31.591Z,101627.31
2022-07-30T11:05:44.308Z,101630.69
2022-07-30T11:08:31.732Z,101628.66
2022-07-30T11:11:19.601Z,101626.78
2022-07-30T11:14:06.158Z,101628.41
2022-07-30T11:16:32.907Z,101625.66
2022-07-30T11:19:53.421Z,101618.91
2022-07-30T11:22:22.040Z,101622.44
2022-07-30T11:24:50.408Z,101614.28
2022-07-30T11:27:45.684Z,101618.59
2022-07-30T11:30:17.012Z,101619.72
2022-07-30T11:33:05.621Z,101612.84
2022-07-30T11:35:35.578Z,101622.34
2022-07-30T11:38:22.392Z,101620.00
2022-07-30T11:40:49.425Z,101611.28
2022-07-30T11:43:36.190Z,101606.38
2022-07-30T11:46:07.294Z,101618.03
2022-07-30T11:48:39.571Z,101622.19
2022-07-30T11:51:06.559Z,101613.13
2022-07-30T11:53:33.382Z,101624.53
2022-07-30T11:56:02.425Z,101607.13
2022-07-30T11:58:35.847Z,101615.63
2022-07-30T12:01:17.386Z,101609.28
2022-07-30T12:03:45.121Z,101606.88
2022-07-30T12:06:20.325Z,101616.63
2022-07-30T12:08:48.528Z,101604.16
2022-07-30T12:11:15.764Z,101606.00
2022-07-30T12:13:46.302Z,101613.63
2022-07-30T12:16:16.676Z,101616.25
2022-07-30T12:18:44.375Z,101602.72
2022-07-30T12:21:17.750Z,101610.53
2022-07-30T12:23:54.844Z,101609.91
2022-07-30T12:26:23.143Z,101600.28
2022-07-30T12:28:51.305Z,101590.91
2022-07-30T12:31:18.224Z,101606.38
2022-07-30T12:33:45.282Z,101608.50
2022-07-30T12:36:23.367Z,101602.38
2022-07-30T12:38:52.470Z,101596.94
2022-07-30T12:41:19.342Z,101601.97
2022-07-30T12:43:50.058Z,101598.47
2022-07-30T12:46:24.647Z,101592.78
2022-07-30T12:49:05.153Z,101589.44
2022-07-30T12:51:51.287Z,101588.31
2022-07-30T12:54:19.768Z,101591.75
2022-07-30T12:57:03.513Z,101586.72
2022-07-30T12:59:31.600Z,101579.13
2022-07-30T13:02:00.586Z,101588.13
2022-07-30T13:04:28.046Z,101588.75
2022-07-30T13:07:08.333Z,101577.63
2022-07-30T13:09:35.268Z,101587.25
2022-07-30T13:12:02.311Z,101589.56
2022-07-30T13:14:29.264Z,101585.78
2022-07-30T13:16:57.009Z,101578.94
2022-07-30T13:19:24.232Z,101581.53
2022-07-30T13:21:51.816Z,101589.97
2022-07-30T13:24:19.249Z,101576.16
2022-07-30T13:26:46.712Z,101574.91
2022-07-30T13:29:13.849Z,101572.81
2022-07-30T13:31:42.776Z,101573.75
2022-07-30T13:34:11.031Z,101569.91
2022-07-30T13:36:38.124Z,101575.63
2022-07-30T13:39:04.947Z,101564.63
2022-07-30T13:41:31.809Z,101570.88
2022-07-30T13:43:58.628Z,101555.13
2022-07-30T13:46:25.542Z,101559.59
2022-07-30T13:48:52.611Z,101553.03
2022-07-30T13:51:19.559Z,101549.44
2022-07-30T13:53:46.468Z,101556.22
2022-07-30T13:56:13.403Z,101546.63
2022-07-30T13:58:42.667Z,101549.34
2022-07-30T14:01:15.796Z,101546.88
2022-07-30T14:03:50.097Z,101535.88
2022-07-30T14:06:18.928Z,101545.66
2022-07-30T14:08:45.887Z,101536.97
2022-07-30T14:11:12.903Z,101548.66
2022-07-30T14:13:39.838Z,101549.13
2022-07-30T14:16:22.615Z,101546.84
2022-07-30T14:18:53.704Z,101546.47
2022-07-30T14:21:20.590Z,101532.25
2022-07-30T14:23:47.933Z,101542.16
2022-07-30T14:26:15.210Z,101543.03
2022-07-30T14:28:42.073Z,101547.53
2022-07-30T14:31:09.007Z,101551.50
2022-07-30T14:33:35.825Z,101547.06
2022-07-30T14:36:02.873Z,101547.38
2022-07-30T14:38:29.665Z,101551.75
2022-07-30T14:40:56.584Z,101541.78
2022-07-30T14:43:24.985Z,101546.53
2022-07-30T14:45:53.446Z,101529.03
2022-07-30T14:48:20.555Z,101538.59
2022-07-30T14:51:12.780Z,101544.56
2022-07-30T14:53:34.345Z,101541.31
2022-07-30T14:56:01.304Z,101543.47
2022-07-30T14:58:28.277Z,101541.09
2022-07-30T15:00:55.441Z,101527.38
2022-07-30T15:03:23.343Z,101529.69
2022-07-30T15:05:53.166Z,101531.34
2022-07-30T15:08:20.219Z,101528.06
2022-07-30T15:10:47.084Z,101513.25
2022-07-30T15:13:14.841Z,101533.44
2022-07-30T15:15:43.379Z,101531.16
2022-07-30T15:18:13.628Z,101529.09
2022-07-30T15:20:40.587Z,101523.53
2022-07-30T15:23:11.639Z,101519.66
2022-07-30T15:25:41.044Z,101522.13
2022-07-30T15:28:07.900Z,101528.72
2022-07-30T15:30:34.904Z,101509.56
2022-07-30T15:33:02.184Z,101508.75
2022-07-30T15:35:29.184Z,101520.06
2022-07-30T15:37:56.026Z,101517.34
2022-07-30T15:40:23.067Z,101517.97
2022-07-30T15:42:49.901Z,101519.44
2022-07-30T15:45:18.225Z,101519.44
2022-07-30T15:47:45.603Z,101519.44
2022-07-30T15:50:12.725Z,101519.66
2022-07-30T15:52:39.702Z,101519.44
2022-07-30T15:55:07.287Z,101514.50
2022-07-30T15:57:34.137Z,101518.63
2022-07-30T16:00:01.050Z,101524.41
2022-07-30T16:02:28.082Z,101511.19
2022-07-30T16:04:55.019Z,101522.09
2022-07-30T16:07:21.804Z,101519.03
2022-07-30T16:09:48.626Z,101512.03
2022-07-30T16:12:15.682Z,101510.38
2022-07-30T16:14:42.581Z,101522.28
2022-07-30T16:17:13.679Z,101514.72
2022-07-30T16:19:41.663Z,101504.44
2022-07-30T16:22:14.932Z,101508.16
2022-07-30T16:24:49.123Z,101509.16
2022-07-30T16:27:17.251Z,101509.19
2022-07-30T16:29:44.166Z,101510.00
2022-07-30T16:32:11.080Z,101510.00
2022-07-30T16:34:37.928Z,101503.03
2022-07-30T16:37:05.025Z,101497.69
2022-07-30T16:39:31.915Z,101519.03
2022-07-30T16:41:58.863Z,101507.50
2022-07-30T16:44:27.291Z,101502.75
2022-07-30T16:46:54.185Z,101511.16
2022-07-30T16:49:21.176Z,101502.53
2022-07-30T16:51:48.016Z,101500.63
2022-07-30T16:54:15.205Z,101505.31
2022-07-30T16:56:42.590Z,101501.59
2022-07-30T16:59:13.523Z,101509.19
2022-07-30T17:01:40.805Z,101503.78
2022-07-30T17:04:07.622Z,101498.84
2022-07-30T17:06:35.707Z,101501.84
2022-07-30T17:09:02.642Z,101494.81
2022-07-30T17:11:47.358Z,101498.09
2022-07-30T17:14:18.925Z,101490.44
2022-07-30T17:16:45.762Z,101501.88
2022-07-30T17:19:12.885Z,101492.16
2022-07-30T17:21:39.743Z,101490.72
2022-07-30T17:24:11.425Z,101494.53
2022-07-30T17:26:43.129Z,101491.19
2022-07-30T17:29:14.066Z,101474.38
2022-07-30T17:31:44.421Z,101479.06
2022-07-30T17:34:14.159Z,101493.41
2022-07-30T17:36:42.340Z,101482.22
2022-07-30T17:40:01.512Z,101491.78
2022-07-30T17:42:04.284Z,101496.22
2022-07-30T17:44:31.119Z,101481.22
2022-07-30T17:46:57.967Z,101485.91
2022-07-30T17:49:24.981Z,101482.63
2022-07-30T17:51:51.926Z,101481.91
2022-07-30T17:54:18.863Z,101486.53
2022-07-30T17:56:45.866Z,101480.78
2022-07-30T17:59:14.100Z,101494.25
2022-07-30T18:01:41.125Z,101483.94
2022-07-30T18:04:08.242Z,101486.69
2022-07-30T18:06:36.124Z,101490.38
2022-07-30T18:09:04.751Z,101483.34
2022-07-30T18:11:31.630Z,101489.16
2022-07-30T18:13:58.472Z,101488.50
2022-07-30T18:16:25.621Z,101496.66
2022-07-30T18:18:52.604Z,101497.84
2022-07-30T18:21:19.505Z,101494.84
2022-07-30T18:23:46.505Z,101499.25
2022-07-30T18:26:15.129Z,101499.50
2022-07-30T18:28:42.024Z,101508.03
2022-07-30T18:31:08.926Z,101497.50
2022-07-30T18:33:35.886Z,101498.88
2022-07-30T18:36:02.741Z,101489.69
2022-07-30T18:38:29.623Z,101494.38
2022-07-30T18:40:59.268Z,101498.94
2022-07-30T18:43:29.862Z,101501.34
2022-07-30T18:45:57.004Z,101499.03
2022-07-30T18:48:24.646Z,101506.91
2022-07-30T18:50:52.964Z,101498.84
2022-07-30T18:53:19.891Z,101509.66
2022-07-30T18:55:47.063Z,101501.88
2022-07-30T18:58:13.906Z,101506.81
2022-07-30T19:00:43.327Z,101507.47
2022-07-30T19:03:17.460Z,101505.00
2022-07-30T19:05:45.946Z,101501.94
2022-07-30T19:08:12.847Z,101514.59
2022-07-30T19:10:40.139Z,101512.97
2022-07-30T19:13:07.246Z,101517.09
2022-07-30T19:15:34.074Z,101522.56
2022-07-30T19:18:00.990Z,101509.84
2022-07-30T19:20:28.007Z,101520.81
2022-07-30T19:23:04.900Z,101523.34
2022-07-30T19:25:33.243Z,101517.22
2022-07-30T19:28:01.552Z,101522.47
2022-07-30T19:30:31.428Z,101515.34
2022-07-30T19:33:12.615Z,101517.34
2022-07-30T19:35:42.098Z,101521.28
2022-07-30T19:40:55.864Z,101524.94
2022-07-30T19:43:24.228Z,101525.31
2022-07-30T19:45:51.782Z,101529.31
2022-07-30T19:48:29.455Z,101534.41
2022-07-30T19:50:59.032Z,101524.28
2022-07-30T19:53:26.639Z,101537.56
2022-07-30T19:55:54.949Z,101528.78
2022-07-30T19:58:22.201Z,101533.03
2022-07-30T20:00:51.909Z,101530.38
2022-07-30T20:03:26.275Z,101534.88
2022-07-30T20:08:44.779Z,101545.03
2022-07-30T20:11:12.182Z,101531.63
2022-07-30T20:13:48.012Z,101531.44
2022-07-30T20:16:15.622Z,101528.63
2022-07-30T20:18:42.989Z,101532.38
2022-07-30T20:21:14.849Z,101532.72
2022-07-30T20:23:42.287Z,101529.72
2022-07-30T20:26:14.179Z,101531.75
2022-07-30T20:28:42.445Z,101535.03
2022-07-30T20:31:10.586Z,101523.34
2022-07-30T20:33:38.086Z,101529.97
2022-07-30T20:36:10.063Z,101523.66
2022-07-30T20:38:39.000Z,101525.41
2022-07-30T20:41:25.170Z,101528.72
2022-07-30T20:46:38.907Z,101533.66
2022-07-30T20:49:06.185Z,101523.94
2022-07-30T20:51:33.992Z,101531.44
2022-07-30T20:54:01.642Z,101526.47
2022-07-30T20:56:28.763Z,101528.97
2022-07-30T20:58:56.926Z,101527.25
2022-07-30T21:01:23.840Z,101520.13
2022-07-30T21:03:50.833Z,101520.00
2022-07-30T21:06:17.748Z,101520.94
2022-07-30T21:08:44.631Z,101534.41
2022-07-30T21:11:12.540Z,101527.97
2022-07-30T21:13:39.853Z,101528.03
2022-07-30T21:16:15.729Z,101527.56
2022-07-30T21:18:50.319Z,101523.59
2022-07-30T21:21:30.608Z,101527.56
2022-07-30T21:24:05.744Z,101529.56
2022-07-30T21:26:32.700Z,101530.69
2022-07-30T21:29:01.117Z,101524.72
2022-07-30T21:32:00.331Z,101519.94
2022-07-30T21:34:14.835Z,101524.94
2022-07-30T21:36:42.804Z,101515.69
2022-07-30T21:39:10.012Z,101515.22
2022-07-30T21:41:41.225Z,101523.38
2022-07-30T21:44:09.826Z,101515.28
2022-07-30T21:46:38.069Z,101520.94
2022-07-30T21:49:07.312Z,101520.13
2022-07-30T21:51:35.275Z,101517.81
2022-07-30T21:54:07.284Z,101519.94
2022-07-30T21:56:34.453Z,101521.41
2022-07-30T21:59:01.365Z,101511.97
2022-07-30T22:01:32.984Z,101509.19
2022-07-30T22:04:08.295Z,101514.69
2022-07-30T22:06:37.687Z,101520.34
2022-07-30T22:09:18.101Z,101510.44
2022-07-30T22:11:46.742Z,101514.69
2022-07-30T22:14:13.682Z,101502.06
2022-07-30T22:16:46.219Z,101504.38
2022-07-30T22:19:14.756Z,101506.84
2022-07-30T22:21:46.547Z,101503.72
2022-07-30T22:24:28.892Z,101500.41
2022-07-30T22:27:01.635Z,101515.03
2022-07-30T22:29:38.296Z,101508.09
2022-07-30T22:32:06.888Z,101501.50
2022-07-30T22:34:35.092Z,101490.50
2022-07-30T22:37:02.007Z,101496.81
2022-07-30T22:39:32.301Z,101494.16
2022-07-30T22:42:16.177Z,101491.34
2022-07-30T22:44:45.896Z,101483.56
2022-07-30T22:47:18.761Z,101473.41
2022-07-30T22:49:53.179Z,101481.38
2022-07-30T22:52:22.431Z,101479.38
2022-07-30T22:54:53.314Z,101474.59
2022-07-30T22:57:23.524Z,101465.47
2022-07-30T22:59:58.071Z,101465.47
2022-07-30T23:02:27.874Z,101467.84
2022-07-30T23:04:56.367Z,101465.66
2022-07-30T23:07:23.585Z,101462.53
2022-07-30T23:10:03.885Z,101467.72
2022-07-30T23:12:14.649Z,101519.44
2022-07-30T23:12:15.853Z,101542.38
2022-07-30T23:12:19.515Z,101531.69
2022-07-30T23:12:46.586Z,101458.81
2022-07-30T23:15:13.622Z,101463.91
2022-07-30T23:17:40.479Z,101461.94
2022-07-30T23:20:08.485Z,101464.38
2022-07-30T23:22:35.419Z,101460.09
2022-07-30T23:25:02.930Z,101460.72
2022-07-30T23:27:29.800Z,101449.50
2022-07-30T23:29:56.548Z,101451.13
2022-07-30T23:32:23.665Z,101445.88
2022-07-30T23:34:50.883Z,101450.66
2022-07-30T23:37:17.848Z,101448.47
2022-07-30T23:39:44.861Z,101450.59
2022-07-30T23:42:12.124Z,101454.56
2022-07-30T23:44:39.528Z,101451.44
2022-07-30T23:47:06.500Z,101454.31
2022-07-30T23:49:33.403Z,101449.22
2022-07-30T23:52:00.206Z,101453.78
2022-07-30T23:54:29.023Z,101448.00
2022-07-30T23:56:56.410Z,101437.38
2022-07-30T23:59:40.357Z,101434.56
